sensor_id;sensor_type;location;lat;lon;timestamp;temperature;humidity
51765;DHT22;37835;53.256;6.456;2024-02-21T00:01:39;9.50;99.90
51765;DHT22;37835;53.256;6.456;2024-02-21T00:04:05;9.40;99.90
51765;DHT22;37835;53.256;6.456;2024-02-21T00:06:31;9.40;99.90
51765;DHT22;37835;53.256;6.456;2024-02-21T00:08:57;9.40;99.90
51765;DHT22;37835;53.256;6.456;2024-02-21T00:11:23;9.50;99.90
51765;DHT22;37835;53.256;6.456;2024-02-21T00:13:49;9.40;99.90
51765;DHT22;37835;53.256;6.456;2024-02-21T00:16:16;9.30;99.90
51765;DHT22;37835;53.256;6.456;2024-02-21T00:18:41;9.30;99.90
51765;DHT22;37835;53.256;6.456;2024-02-21T00:21:08;9.30;99.90
51765;DHT22;37835;53.256;6.456;2024-02-21T00:23:34;9.30;99.90
51765;DHT22;37835;53.256;6.456;2024-02-21T00:25:59;9.30;99.90
51765;DHT22;37835;53.256;6.456;2024-02-21T00:28:25;9.20;99.90
51765;DHT22;37835;53.256;6.456;2024-02-21T00:30:51;9.30;99.90
51765;DHT22;37835;53.256;6.456;2024-02-21T00:33:18;9.10;99.90
51765;DHT22;37835;53.256;6.456;2024-02-21T00:35:44;9.10;99.90
51765;DHT22;37835;53.256;6.456;2024-02-21T00:38:10;9.10;99.90
51765;DHT22;37835;53.256;6.456;2024-02-21T00:40:36;9.20;99.90
51765;DHT22;37835;53.256;6.456;2024-02-21T00:43:02;9.10;99.90
51765;DHT22;37835;53.256;6.456;2024-02-21T00:45:28;9.10;99.90
51765;DHT22;37835;53.256;6.456;2024-02-21T00:47:54;9.10;99.90
51765;DHT22;37835;53.256;6.456;2024-02-21T00:50:19;9.10;99.90
51765;DHT22;37835;53.256;6.456;2024-02-21T00:52:45;9.10;99.90
51765;DHT22;37835;53.256;6.456;2024-02-21T00:55:11;9.10;99.90
51765;DHT22;37835;53.256;6.456;2024-02-21T00:57:36;9.10;99.90
51765;DHT22;37835;53.256;6.456;2024-02-21T01:00:03;9.10;99.90
51765;DHT22;37835;53.256;6.456;2024-02-21T01:02:29;9.10;99.90
51765;DHT22;37835;53.256;6.456;2024-02-21T01:04:57;9.00;99.90
51765;DHT22;37835;53.256;6.456;2024-02-21T01:07:23;9.10;99.90
51765;DHT22;37835;53.256;6.456;2024-02-21T01:09:50;9.00;99.90
51765;DHT22;37835;53.256;6.456;2024-02-21T01:12:16;8.90;99.90
51765;DHT22;37835;53.256;6.456;2024-02-21T01:14:42;9.00;99.90
51765;DHT22;37835;53.256;6.456;2024-02-21T01:17:08;9.10;99.90
51765;DHT22;37835;53.256;6.456;2024-02-21T01:19:34;9.10;99.90
51765;DHT22;37835;53.256;6.456;2024-02-21T01:21:59;9.00;99.90
51765;DHT22;37835;53.256;6.456;2024-02-21T01:24:25;9.20;99.90
51765;DHT22;37835;53.256;6.456;2024-02-21T01:26:51;9.00;99.90
51765;DHT22;37835;53.256;6.456;2024-02-21T01:29:16;9.00;99.90
51765;DHT22;37835;53.256;6.456;2024-02-21T01:31:42;8.90;99.90
51765;DHT22;37835;53.256;6.456;2024-02-21T01:34:08;9.00;99.90
51765;DHT22;37835;53.256;6.456;2024-02-21T01:36:33;8.90;99.90
51765;DHT22;37835;53.256;6.456;2024-02-21T01:38:59;8.90;99.90
51765;DHT22;37835;53.256;6.456;2024-02-21T01:41:25;8.90;99.90
51765;DHT22;37835;53.256;6.456;2024-02-21T01:43:50;8.90;99.90
51765;DHT22;37835;53.256;6.456;2024-02-21T01:46:16;8.90;99.90
51765;DHT22;37835;53.256;6.456;2024-02-21T01:48:42;8.90;99.90
51765;DHT22;37835;53.256;6.456;2024-02-21T01:51:08;8.90;99.90
51765;DHT22;37835;53.256;6.456;2024-02-21T01:53:43;8.80;99.90
51765;DHT22;37835;53.256;6.456;2024-02-21T01:56:10;8.80;99.90
51765;DHT22;37835;53.256;6.456;2024-02-21T01:58:37;8.80;99.90
51765;DHT22;37835;53.256;6.456;2024-02-21T02:01:04;8.80;99.90
51765;DHT22;37835;53.256;6.456;2024-02-21T02:03:30;8.80;99.90
51765;DHT22;37835;53.256;6.456;2024-02-21T02:05:56;8.90;99.90
51765;DHT22;37835;53.256;6.456;2024-02-21T02:08:22;8.80;99.90
51765;DHT22;37835;53.256;6.456;2024-02-21T02:10:48;8.80;99.90
51765;DHT22;37835;53.256;6.456;2024-02-21T02:13:14;8.90;99.90
51765;DHT22;37835;53.256;6.456;2024-02-21T02:15:46;8.90;99.90
51765;DHT22;37835;53.256;6.456;2024-02-21T02:18:13;8.90;99.90
51765;DHT22;37835;53.256;6.456;2024-02-21T02:20:39;8.80;99.90
51765;DHT22;37835;53.256;6.456;2024-02-21T02:25:35;8.90;99.90
51765;DHT22;37835;53.256;6.456;2024-02-21T02:28:01;8.80;99.90
51765;DHT22;37835;53.256;6.456;2024-02-21T02:30:26;8.90;99.90
51765;DHT22;37835;53.256;6.456;2024-02-21T02:32:52;8.90;99.90
51765;DHT22;37835;53.256;6.456;2024-02-21T02:35:18;8.90;99.90
51765;DHT22;37835;53.256;6.456;2024-02-21T02:37:50;8.90;99.90
51765;DHT22;37835;53.256;6.456;2024-02-21T02:40:17;9.00;99.90
51765;DHT22;37835;53.256;6.456;2024-02-21T02:42:43;8.90;99.90
51765;DHT22;37835;53.256;6.456;2024-02-21T02:45:09;8.90;99.90
51765;DHT22;37835;53.256;6.456;2024-02-21T02:47:35;9.00;99.90
51765;DHT22;37835;53.256;6.456;2024-02-21T02:50:01;8.70;99.90
51765;DHT22;37835;53.256;6.456;2024-02-21T02:52:27;8.90;99.90
51765;DHT22;37835;53.256;6.456;2024-02-21T02:54:52;8.90;99.90
51765;DHT22;37835;53.256;6.456;2024-02-21T02:57:21;8.90;99.90
51765;DHT22;37835;53.256;6.456;2024-02-21T02:59:50;8.90;99.90
51765;DHT22;37835;53.256;6.456;2024-02-21T03:02:17;8.80;99.90
51765;DHT22;37835;53.256;6.456;2024-02-21T03:04:43;8.90;99.90
51765;DHT22;37835;53.256;6.456;2024-02-21T03:07:09;8.90;99.90
51765;DHT22;37835;53.256;6.456;2024-02-21T03:09:37;8.80;99.90
51765;DHT22;37835;53.256;6.456;2024-02-21T03:12:04;8.90;99.90
51765;DHT22;37835;53.256;6.456;2024-02-21T03:14:30;8.90;99.90
51765;DHT22;37835;53.256;6.456;2024-02-21T03:16:56;8.80;99.90
51765;DHT22;37835;53.256;6.456;2024-02-21T03:19:22;8.80;99.90
51765;DHT22;37835;53.256;6.456;2024-02-21T03:21:48;8.90;99.90
51765;DHT22;37835;53.256;6.456;2024-02-21T03:24:16;8.70;99.90
51765;DHT22;37835;53.256;6.456;2024-02-21T03:26:41;8.90;99.90
51765;DHT22;37835;53.256;6.456;2024-02-21T03:29:07;8.80;99.90
51765;DHT22;37835;53.256;6.456;2024-02-21T03:31:34;8.90;99.90
51765;DHT22;37835;53.256;6.456;2024-02-21T03:34:00;8.80;99.90
51765;DHT22;37835;53.256;6.456;2024-02-21T03:36:26;8.80;99.90
51765;DHT22;37835;53.256;6.456;2024-02-21T03:38:52;8.80;99.90
51765;DHT22;37835;53.256;6.456;2024-02-21T03:41:17;8.80;99.90
51765;DHT22;37835;53.256;6.456;2024-02-21T03:43:43;8.80;99.90
51765;DHT22;37835;53.256;6.456;2024-02-21T03:46:09;8.80;99.90
51765;DHT22;37835;53.256;6.456;2024-02-21T03:48:35;8.80;99.90
51765;DHT22;37835;53.256;6.456;2024-02-21T03:51:01;8.80;99.90
51765;DHT22;37835;53.256;6.456;2024-02-21T03:53:26;9.00;99.90
51765;DHT22;37835;53.256;6.456;2024-02-21T03:55:54;8.80;99.90
51765;DHT22;37835;53.256;6.456;2024-02-21T03:58:20;8.80;99.90
51765;DHT22;37835;53.256;6.456;2024-02-21T04:00:46;8.70;99.90
51765;DHT22;37835;53.256;6.456;2024-02-21T04:03:11;8.80;99.90
51765;DHT22;37835;53.256;6.456;2024-02-21T04:05:37;8.80;99.90
51765;DHT22;37835;53.256;6.456;2024-02-21T04:08:04;8.80;99.90
51765;DHT22;37835;53.256;6.456;2024-02-21T04:10:30;8.90;99.90
51765;DHT22;37835;53.256;6.456;2024-02-21T04:12:56;8.80;99.90
51765;DHT22;37835;53.256;6.456;2024-02-21T04:15:22;8.80;99.90
51765;DHT22;37835;53.256;6.456;2024-02-21T04:17:47;8.80;99.90
51765;DHT22;37835;53.256;6.456;2024-02-21T04:20:16;8.80;99.90
51765;DHT22;37835;53.256;6.456;2024-02-21T04:22:45;8.80;99.90
51765;DHT22;37835;53.256;6.456;2024-02-21T04:25:11;8.80;99.90
51765;DHT22;37835;53.256;6.456;2024-02-21T04:27:39;8.80;99.90
51765;DHT22;37835;53.256;6.456;2024-02-21T04:30:05;8.90;99.90
51765;DHT22;37835;53.256;6.456;2024-02-21T04:32:31;8.80;99.90
51765;DHT22;37835;53.256;6.456;2024-02-21T04:34:57;8.70;99.90
51765;DHT22;37835;53.256;6.456;2024-02-21T04:37:23;8.90;99.90
51765;DHT22;37835;53.256;6.456;2024-02-21T04:39:50;8.90;99.90
51765;DHT22;37835;53.256;6.456;2024-02-21T04:42:16;8.90;99.90
51765;DHT22;37835;53.256;6.456;2024-02-21T04:44:41;8.90;99.90
51765;DHT22;37835;53.256;6.456;2024-02-21T04:47:07;8.80;99.90
51765;DHT22;37835;53.256;6.456;2024-02-21T04:49:33;8.70;99.90
51765;DHT22;37835;53.256;6.456;2024-02-21T04:51:59;8.90;99.90
51765;DHT22;37835;53.256;6.456;2024-02-21T04:54:24;9.00;99.90
51765;DHT22;37835;53.256;6.456;2024-02-21T04:56:50;8.80;99.90
51765;DHT22;37835;53.256;6.456;2024-02-21T04:59:17;8.90;99.90
51765;DHT22;37835;53.256;6.456;2024-02-21T05:01:42;8.90;99.90
51765;DHT22;37835;53.256;6.456;2024-02-21T05:04:08;8.70;99.90
51765;DHT22;37835;53.256;6.456;2024-02-21T05:06:41;8.80;99.90
51765;DHT22;37835;53.256;6.456;2024-02-21T05:09:10;8.80;99.90
51765;DHT22;37835;53.256;6.456;2024-02-21T05:11:36;8.70;99.90
51765;DHT22;37835;53.256;6.456;2024-02-21T05:14:03;8.60;99.90
51765;DHT22;37835;53.256;6.456;2024-02-21T05:16:29;8.80;99.90
51765;DHT22;37835;53.256;6.456;2024-02-21T05:18:55;8.70;99.90
51765;DHT22;37835;53.256;6.456;2024-02-21T05:21:23;8.80;99.90
51765;DHT22;37835;53.256;6.456;2024-02-21T05:23:49;8.80;99.90
51765;DHT22;37835;53.256;6.456;2024-02-21T05:26:25;8.80;99.90
51765;DHT22;37835;53.256;6.456;2024-02-21T05:28:51;8.80;99.90
51765;DHT22;37835;53.256;6.456;2024-02-21T05:31:20;8.70;99.90
51765;DHT22;37835;53.256;6.456;2024-02-21T05:33:47;8.70;99.90
51765;DHT22;37835;53.256;6.456;2024-02-21T05:36:13;8.80;99.90
51765;DHT22;37835;53.256;6.456;2024-02-21T05:38:39;8.70;99.90
51765;DHT22;37835;53.256;6.456;2024-02-21T05:41:05;8.70;99.90
51765;DHT22;37835;53.256;6.456;2024-02-21T05:43:30;8.70;99.90
51765;DHT22;37835;53.256;6.456;2024-02-21T05:45:56;8.70;99.90
51765;DHT22;37835;53.256;6.456;2024-02-21T05:48:23;8.80;99.90
51765;DHT22;37835;53.256;6.456;2024-02-21T05:50:49;8.70;99.90
51765;DHT22;37835;53.256;6.456;2024-02-21T05:53:14;8.70;99.90
51765;DHT22;37835;53.256;6.456;2024-02-21T05:55:40;8.70;99.90
51765;DHT22;37835;53.256;6.456;2024-02-21T05:58:06;8.70;99.90
51765;DHT22;37835;53.256;6.456;2024-02-21T06:00:33;8.70;99.90
51765;DHT22;37835;53.256;6.456;2024-02-21T06:02:59;8.70;99.90
51765;DHT22;37835;53.256;6.456;2024-02-21T06:05:25;8.70;99.90
51765;DHT22;37835;53.256;6.456;2024-02-21T06:07:50;8.70;99.90
51765;DHT22;37835;53.256;6.456;2024-02-21T06:10:16;8.70;99.90
51765;DHT22;37835;53.256;6.456;2024-02-21T06:12:42;8.70;99.90
51765;DHT22;37835;53.256;6.456;2024-02-21T06:15:08;8.80;99.90
51765;DHT22;37835;53.256;6.456;2024-02-21T06:17:34;8.60;99.90
51765;DHT22;37835;53.256;6.456;2024-02-21T06:20:00;8.70;99.90
51765;DHT22;37835;53.256;6.456;2024-02-21T06:22:25;8.70;99.90
51765;DHT22;37835;53.256;6.456;2024-02-21T06:24:51;8.70;99.90
51765;DHT22;37835;53.256;6.456;2024-02-21T06:27:19;8.70;99.90
51765;DHT22;37835;53.256;6.456;2024-02-21T06:29:45;8.70;99.90
51765;DHT22;37835;53.256;6.456;2024-02-21T06:32:10;8.80;99.90
51765;DHT22;37835;53.256;6.456;2024-02-21T06:34:36;8.70;99.90
51765;DHT22;37835;53.256;6.456;2024-02-21T06:37:02;8.60;99.90
51765;DHT22;37835;53.256;6.456;2024-02-21T06:39:27;8.70;99.90
51765;DHT22;37835;53.256;6.456;2024-02-21T06:41:54;8.70;99.90
51765;DHT22;37835;53.256;6.456;2024-02-21T06:44:21;8.70;99.90
51765;DHT22;37835;53.256;6.456;2024-02-21T06:46:47;8.70;99.90
51765;DHT22;37835;53.256;6.456;2024-02-21T06:49:12;8.90;99.90
51765;DHT22;37835;53.256;6.456;2024-02-21T06:51:42;8.60;99.90
51765;DHT22;37835;53.256;6.456;2024-02-21T06:54:08;8.70;99.90
51765;DHT22;37835;53.256;6.456;2024-02-21T06:56:35;8.70;99.90
51765;DHT22;37835;53.256;6.456;2024-02-21T06:59:01;8.60;99.90
51765;DHT22;37835;53.256;6.456;2024-02-21T07:01:29;8.70;99.90
51765;DHT22;37835;53.256;6.456;2024-02-21T07:03:55;8.70;99.90
51765;DHT22;37835;53.256;6.456;2024-02-21T07:06:20;8.70;99.90
51765;DHT22;37835;53.256;6.456;2024-02-21T07:08:46;8.90;99.90
51765;DHT22;37835;53.256;6.456;2024-02-21T07:11:12;8.70;99.90
51765;DHT22;37835;53.256;6.456;2024-02-21T07:13:37;8.70;99.90
51765;DHT22;37835;53.256;6.456;2024-02-21T07:16:03;8.60;99.90
51765;DHT22;37835;53.256;6.456;2024-02-21T07:18:29;8.70;99.90
51765;DHT22;37835;53.256;6.456;2024-02-21T07:20:55;8.70;99.90
51765;DHT22;37835;53.256;6.456;2024-02-21T07:23:21;8.70;99.90
51765;DHT22;37835;53.256;6.456;2024-02-21T07:25:46;8.60;99.90
51765;DHT22;37835;53.256;6.456;2024-02-21T07:28:12;8.70;99.90
51765;DHT22;37835;53.256;6.456;2024-02-21T07:30:39;8.70;99.90
51765;DHT22;37835;53.256;6.456;2024-02-21T07:33:04;8.70;99.90
51765;DHT22;37835;53.256;6.456;2024-02-21T07:35:30;8.80;99.90
51765;DHT22;37835;53.256;6.456;2024-02-21T07:37:56;8.70;99.90
51765;DHT22;37835;53.256;6.456;2024-02-21T07:40:21;8.70;99.90
51765;DHT22;37835;53.256;6.456;2024-02-21T07:42:47;8.80;99.90
51765;DHT22;37835;53.256;6.456;2024-02-21T07:45:13;8.70;99.90
51765;DHT22;37835;53.256;6.456;2024-02-21T07:47:38;8.50;99.90
51765;DHT22;37835;53.256;6.456;2024-02-21T07:50:04;8.60;99.90
51765;DHT22;37835;53.256;6.456;2024-02-21T07:52:30;8.70;99.90
51765;DHT22;37835;53.256;6.456;2024-02-21T07:54:56;8.70;99.90
51765;DHT22;37835;53.256;6.456;2024-02-21T07:57:23;8.90;99.90
51765;DHT22;37835;53.256;6.456;2024-02-21T07:59:48;8.70;99.90
51765;DHT22;37835;53.256;6.456;2024-02-21T08:02:14;8.70;99.90
51765;DHT22;37835;53.256;6.456;2024-02-21T08:04:41;8.70;99.90
51765;DHT22;37835;53.256;6.456;2024-02-21T08:07:06;8.80;99.90
51765;DHT22;37835;53.256;6.456;2024-02-21T08:09:32;8.80;99.90
51765;DHT22;37835;53.256;6.456;2024-02-21T08:11:58;8.80;99.90
51765;DHT22;37835;53.256;6.456;2024-02-21T08:14:32;9.00;99.90
51765;DHT22;37835;53.256;6.456;2024-02-21T08:16:58;9.20;99.90
51765;DHT22;37835;53.256;6.456;2024-02-21T08:19:25;8.90;99.90
51765;DHT22;37835;53.256;6.456;2024-02-21T08:21:50;8.80;99.90
51765;DHT22;37835;53.256;6.456;2024-02-21T08:24:16;8.80;99.90
51765;DHT22;37835;53.256;6.456;2024-02-21T08:26:42;8.90;99.90
51765;DHT22;37835;53.256;6.456;2024-02-21T08:29:12;8.90;99.90
51765;DHT22;37835;53.256;6.456;2024-02-21T08:31:38;8.80;99.90
51765;DHT22;37835;53.256;6.456;2024-02-21T08:34:04;8.70;99.90
51765;DHT22;37835;53.256;6.456;2024-02-21T08:36:33;8.70;99.90
51765;DHT22;37835;53.256;6.456;2024-02-21T08:38:59;8.80;99.90
51765;DHT22;37835;53.256;6.456;2024-02-21T08:41:25;8.80;99.90
51765;DHT22;37835;53.256;6.456;2024-02-21T08:43:52;8.80;99.90
51765;DHT22;37835;53.256;6.456;2024-02-21T08:46:19;8.80;99.90
51765;DHT22;37835;53.256;6.456;2024-02-21T08:48:46;8.90;99.90
51765;DHT22;37835;53.256;6.456;2024-02-21T08:51:12;9.00;99.90
51765;DHT22;37835;53.256;6.456;2024-02-21T08:53:38;8.80;99.90
51765;DHT22;37835;53.256;6.456;2024-02-21T08:56:04;8.90;99.90
51765;DHT22;37835;53.256;6.456;2024-02-21T08:58:30;9.00;99.90
51765;DHT22;37835;53.256;6.456;2024-02-21T09:00:56;8.90;99.90
51765;DHT22;37835;53.256;6.456;2024-02-21T09:03:22;8.80;99.90
51765;DHT22;37835;53.256;6.456;2024-02-21T09:05:48;8.80;99.90
51765;DHT22;37835;53.256;6.456;2024-02-21T09:08:14;8.90;99.90
51765;DHT22;37835;53.256;6.456;2024-02-21T09:10:40;8.90;99.90
51765;DHT22;37835;53.256;6.456;2024-02-21T09:13:06;8.80;99.90
51765;DHT22;37835;53.256;6.456;2024-02-21T09:15:33;8.90;99.90
51765;DHT22;37835;53.256;6.456;2024-02-21T09:17:59;8.80;99.90
51765;DHT22;37835;53.256;6.456;2024-02-21T09:20:25;8.90;99.90
51765;DHT22;37835;53.256;6.456;2024-02-21T09:22:51;8.90;99.90
51765;DHT22;37835;53.256;6.456;2024-02-21T09:25:18;8.90;99.90
51765;DHT22;37835;53.256;6.456;2024-02-21T09:27:46;8.90;99.90
51765;DHT22;37835;53.256;6.456;2024-02-21T09:30:12;8.90;99.90
51765;DHT22;37835;53.256;6.456;2024-02-21T09:32:38;8.90;99.90
51765;DHT22;37835;53.256;6.456;2024-02-21T09:35:04;8.90;99.90
51765;DHT22;37835;53.256;6.456;2024-02-21T09:37:33;9.00;99.90
51765;DHT22;37835;53.256;6.456;2024-02-21T09:39:59;8.90;99.90
51765;DHT22;37835;53.256;6.456;2024-02-21T09:42:36;9.00;99.90
51765;DHT22;37835;53.256;6.456;2024-02-21T09:45:04;8.90;99.90
51765;DHT22;37835;53.256;6.456;2024-02-21T09:50:24;9.10;99.90
51765;DHT22;37835;53.256;6.456;2024-02-21T09:52:51;8.90;99.90
51765;DHT22;37835;53.256;6.456;2024-02-21T09:55:19;8.90;99.90
51765;DHT22;37835;53.256;6.456;2024-02-21T09:57:45;9.00;99.90
51765;DHT22;37835;53.256;6.456;2024-02-21T10:00:12;9.00;99.90
51765;DHT22;37835;53.256;6.456;2024-02-21T10:02:39;9.10;99.90
51765;DHT22;37835;53.256;6.456;2024-02-21T10:05:05;9.10;99.90
51765;DHT22;37835;53.256;6.456;2024-02-21T10:07:33;8.90;99.90
51765;DHT22;37835;53.256;6.456;2024-02-21T10:10:05;9.00;99.90
51765;DHT22;37835;53.256;6.456;2024-02-21T10:12:31;9.00;99.90
51765;DHT22;37835;53.256;6.456;2024-02-21T10:15:04;9.10;99.90
51765;DHT22;37835;53.256;6.456;2024-02-21T10:17:34;9.10;99.90
51765;DHT22;37835;53.256;6.456;2024-02-21T10:20:10;9.10;99.90
51765;DHT22;37835;53.256;6.456;2024-02-21T10:22:38;9.10;99.90
51765;DHT22;37835;53.256;6.456;2024-02-21T10:25:14;9.10;99.90
51765;DHT22;37835;53.256;6.456;2024-02-21T10:27:40;9.10;99.90
51765;DHT22;37835;53.256;6.456;2024-02-21T10:30:12;9.10;99.90
51765;DHT22;37835;53.256;6.456;2024-02-21T10:32:51;9.10;99.90
51765;DHT22;37835;53.256;6.456;2024-02-21T10:35:32;9.10;99.90
51765;DHT22;37835;53.256;6.456;2024-02-21T10:37:58;9.10;99.90
51765;DHT22;37835;53.256;6.456;2024-02-21T10:40:25;9.10;99.90
51765;DHT22;37835;53.256;6.456;2024-02-21T10:42:59;9.30;99.90
51765;DHT22;37835;53.256;6.456;2024-02-21T10:45:45;9.20;99.90
51765;DHT22;37835;53.256;6.456;2024-02-21T10:48:13;9.20;99.90
51765;DHT22;37835;53.256;6.456;2024-02-21T10:56:33;9.20;99.90
51765;DHT22;37835;53.256;6.456;2024-02-21T10:59:07;9.30;99.90
51765;DHT22;37835;53.256;6.456;2024-02-21T11:01:34;9.30;99.90
51765;DHT22;37835;53.256;6.456;2024-02-21T11:04:05;9.30;99.90
51765;DHT22;37835;53.256;6.456;2024-02-21T11:06:32;9.30;99.90
51765;DHT22;37835;53.256;6.456;2024-02-21T11:09:10;9.30;99.90
51765;DHT22;37835;53.256;6.456;2024-02-21T11:11:38;9.40;99.90
51765;DHT22;37835;53.256;6.456;2024-02-21T11:14:09;9.50;99.90
51765;DHT22;37835;53.256;6.456;2024-02-21T11:16:39;9.50;99.90
51765;DHT22;37835;53.256;6.456;2024-02-21T11:19:10;9.40;99.90
51765;DHT22;37835;53.256;6.456;2024-02-21T11:21:38;9.50;99.90
51765;DHT22;37835;53.256;6.456;2024-02-21T11:24:04;9.50;99.90
51765;DHT22;37835;53.256;6.456;2024-02-21T11:26:32;9.60;99.90
51765;DHT22;37835;53.256;6.456;2024-02-21T11:29:01;9.60;99.90
51765;DHT22;37835;53.256;6.456;2024-02-21T11:31:41;9.60;99.90
51765;DHT22;37835;53.256;6.456;2024-02-21T11:34:13;9.60;99.90
51765;DHT22;37835;53.256;6.456;2024-02-21T11:39:25;9.60;99.90
51765;DHT22;37835;53.256;6.456;2024-02-21T11:42:03;9.60;99.90
51765;DHT22;37835;53.256;6.456;2024-02-21T11:44:30;9.60;99.90
51765;DHT22;37835;53.256;6.456;2024-02-21T11:46:56;9.60;99.90
51765;DHT22;37835;53.256;6.456;2024-02-21T11:49:25;9.60;99.90
51765;DHT22;37835;53.256;6.456;2024-02-21T11:52:00;9.40;99.90
51765;DHT22;37835;53.256;6.456;2024-02-21T11:54:30;9.60;99.90
51765;DHT22;37835;53.256;6.456;2024-02-21T11:56:56;9.60;99.90
51765;DHT22;37835;53.256;6.456;2024-02-21T11:59:21;9.60;99.90
51765;DHT22;37835;53.256;6.456;2024-02-21T12:01:48;9.60;99.90
51765;DHT22;37835;53.256;6.456;2024-02-21T12:04:15;9.60;99.90
51765;DHT22;37835;53.256;6.456;2024-02-21T12:06:44;9.50;99.90
51765;DHT22;37835;53.256;6.456;2024-02-21T12:09:10;9.80;99.90
51765;DHT22;37835;53.256;6.456;2024-02-21T12:11:39;9.60;99.90
51765;DHT22;37835;53.256;6.456;2024-02-21T12:14:04;9.60;99.90
51765;DHT22;37835;53.256;6.456;2024-02-21T12:16:31;9.60;99.90
51765;DHT22;37835;53.256;6.456;2024-02-21T12:19:01;9.60;99.90
51765;DHT22;37835;53.256;6.456;2024-02-21T12:21:29;9.60;99.90
51765;DHT22;37835;53.256;6.456;2024-02-21T12:23:55;9.60;99.90
51765;DHT22;37835;53.256;6.456;2024-02-21T12:26:22;9.60;99.90
51765;DHT22;37835;53.256;6.456;2024-02-21T12:28:48;9.70;99.90
51765;DHT22;37835;53.256;6.456;2024-02-21T12:31:13;9.60;99.90
51765;DHT22;37835;53.256;6.456;2024-02-21T12:33:40;9.60;99.90
51765;DHT22;37835;53.256;6.456;2024-02-21T12:36:05;9.60;99.90
51765;DHT22;37835;53.256;6.456;2024-02-21T12:38:31;9.60;99.90
51765;DHT22;37835;53.256;6.456;2024-02-21T12:40:57;9.60;99.90
51765;DHT22;37835;53.256;6.456;2024-02-21T12:43:23;9.70;99.90
51765;DHT22;37835;53.256;6.456;2024-02-21T12:45:49;9.70;99.90
51765;DHT22;37835;53.256;6.456;2024-02-21T12:48:14;9.70;99.90
51765;DHT22;37835;53.256;6.456;2024-02-21T12:50:48;9.70;99.90
51765;DHT22;37835;53.256;6.456;2024-02-21T12:53:15;9.70;99.90
51765;DHT22;37835;53.256;6.456;2024-02-21T12:55:41;9.70;99.90
51765;DHT22;37835;53.256;6.456;2024-02-21T12:58:07;9.70;99.90
51765;DHT22;37835;53.256;6.456;2024-02-21T13:00:33;9.70;99.90
51765;DHT22;37835;53.256;6.456;2024-02-21T13:03:00;9.70;99.90
51765;DHT22;37835;53.256;6.456;2024-02-21T13:05:26;9.70;99.90
51765;DHT22;37835;53.256;6.456;2024-02-21T13:07:53;9.70;99.90
51765;DHT22;37835;53.256;6.456;2024-02-21T13:10:19;9.70;99.90
51765;DHT22;37835;53.256;6.456;2024-02-21T13:12:45;9.70;99.90
51765;DHT22;37835;53.256;6.456;2024-02-21T13:15:11;9.80;99.90
51765;DHT22;37835;53.256;6.456;2024-02-21T13:17:37;9.70;99.90
51765;DHT22;37835;53.256;6.456;2024-02-21T13:20:04;9.80;99.90
51765;DHT22;37835;53.256;6.456;2024-02-21T13:22:31;9.70;99.90
51765;DHT22;37835;53.256;6.456;2024-02-21T13:24:57;9.70;99.90
51765;DHT22;37835;53.256;6.456;2024-02-21T13:27:22;9.70;99.90
51765;DHT22;37835;53.256;6.456;2024-02-21T13:29:48;9.70;99.90
51765;DHT22;37835;53.256;6.456;2024-02-21T13:32:14;9.70;99.90
51765;DHT22;37835;53.256;6.456;2024-02-21T13:34:41;9.50;99.90
51765;DHT22;37835;53.256;6.456;2024-02-21T13:37:07;9.70;99.90
51765;DHT22;37835;53.256;6.456;2024-02-21T13:39:35;9.70;99.90
51765;DHT22;37835;53.256;6.456;2024-02-21T13:42:02;9.80;99.90
51765;DHT22;37835;53.256;6.456;2024-02-21T13:44:33;9.70;99.90
51765;DHT22;37835;53.256;6.456;2024-02-21T13:47:00;9.70;99.90
51765;DHT22;37835;53.256;6.456;2024-02-21T13:49:26;9.70;99.90
51765;DHT22;37835;53.256;6.456;2024-02-21T13:51:52;9.90;99.90
51765;DHT22;37835;53.256;6.456;2024-02-21T13:54:18;9.80;99.90
51765;DHT22;37835;53.256;6.456;2024-02-21T13:56:45;9.70;99.90
51765;DHT22;37835;53.256;6.456;2024-02-21T13:59:12;9.70;99.90
51765;DHT22;37835;53.256;6.456;2024-02-21T14:01:41;9.80;99.90
51765;DHT22;37835;53.256;6.456;2024-02-21T14:04:08;9.60;99.90
51765;DHT22;37835;53.256;6.456;2024-02-21T14:06:34;9.80;99.90
51765;DHT22;37835;53.256;6.456;2024-02-21T14:08:59;9.70;99.90
51765;DHT22;37835;53.256;6.456;2024-02-21T14:11:26;9.90;99.90
51765;DHT22;37835;53.256;6.456;2024-02-21T14:13:52;9.70;99.90
51765;DHT22;37835;53.256;6.456;2024-02-21T14:16:18;9.70;99.90
51765;DHT22;37835;53.256;6.456;2024-02-21T14:18:44;9.90;99.90
51765;DHT22;37835;53.256;6.456;2024-02-21T14:21:10;9.80;99.90
51765;DHT22;37835;53.256;6.456;2024-02-21T14:23:40;9.70;99.90
51765;DHT22;37835;53.256;6.456;2024-02-21T14:26:06;9.70;99.90
51765;DHT22;37835;53.256;6.456;2024-02-21T14:28:32;9.70;99.90
51765;DHT22;37835;53.256;6.456;2024-02-21T14:30:59;9.70;99.90
51765;DHT22;37835;53.256;6.456;2024-02-21T14:33:26;9.70;99.90
51765;DHT22;37835;53.256;6.456;2024-02-21T14:35:52;9.70;99.90
51765;DHT22;37835;53.256;6.456;2024-02-21T14:38:19;9.70;99.90
51765;DHT22;37835;53.256;6.456;2024-02-21T14:40:45;9.70;99.90
51765;DHT22;37835;53.256;6.456;2024-02-21T14:43:11;10.50;99.90
51765;DHT22;37835;53.256;6.456;2024-02-21T14:45:36;9.60;99.90
51765;DHT22;37835;53.256;6.456;2024-02-21T14:48:04;9.60;99.90
51765;DHT22;37835;53.256;6.456;2024-02-21T14:50:30;9.70;99.90
51765;DHT22;37835;53.256;6.456;2024-02-21T14:52:55;9.60;99.90
51765;DHT22;37835;53.256;6.456;2024-02-21T14:55:21;9.40;99.90
51765;DHT22;37835;53.256;6.456;2024-02-21T14:57:47;9.60;99.90
51765;DHT22;37835;53.256;6.456;2024-02-21T15:00:13;9.50;99.90
51765;DHT22;37835;53.256;6.456;2024-02-21T15:02:39;9.50;99.90
51765;DHT22;37835;53.256;6.456;2024-02-21T15:05:05;9.50;99.90
51765;DHT22;37835;53.256;6.456;2024-02-21T15:07:31;9.50;99.90
51765;DHT22;37835;53.256;6.456;2024-02-21T15:09:57;9.50;99.90
51765;DHT22;37835;53.256;6.456;2024-02-21T15:12:23;9.50;99.90
51765;DHT22;37835;53.256;6.456;2024-02-21T15:14:49;9.50;99.90
51765;DHT22;37835;53.256;6.456;2024-02-21T15:17:15;9.50;99.90
51765;DHT22;37835;53.256;6.456;2024-02-21T15:19:41;9.40;99.90
51765;DHT22;37835;53.256;6.456;2024-02-21T15:22:10;9.40;99.90
51765;DHT22;37835;53.256;6.456;2024-02-21T15:24:40;9.40;99.90
51765;DHT22;37835;53.256;6.456;2024-02-21T15:27:06;9.40;99.90
51765;DHT22;37835;53.256;6.456;2024-02-21T15:29:34;9.40;99.90
51765;DHT22;37835;53.256;6.456;2024-02-21T15:32:01;9.40;99.90
51765;DHT22;37835;53.256;6.456;2024-02-21T15:34:27;9.40;99.90
51765;DHT22;37835;53.256;6.456;2024-02-21T15:36:53;9.30;99.90
51765;DHT22;37835;53.256;6.456;2024-02-21T15:39:19;9.30;99.90
51765;DHT22;37835;53.256;6.456;2024-02-21T15:41:44;9.30;99.90
51765;DHT22;37835;53.256;6.456;2024-02-21T15:44:10;9.30;99.90
51765;DHT22;37835;53.256;6.456;2024-02-21T15:46:35;9.30;99.90
51765;DHT22;37835;53.256;6.456;2024-02-21T15:49:03;9.40;99.90
51765;DHT22;37835;53.256;6.456;2024-02-21T15:51:28;9.30;99.90
51765;DHT22;37835;53.256;6.456;2024-02-21T15:53:58;9.30;99.90
51765;DHT22;37835;53.256;6.456;2024-02-21T15:56:24;9.80;99.90